Elburn, Illinois
Current Conditions -  °F | °C
As of 11:52 PM on Friday 19 Dec 2014 (Local Time) from KARR Reporting Station
Haze Haze  
Wind Chill: 25°   Ceiling: Unl
Heat Index: 25°   Visibility: 5mi
Dew Point: 20°   Wind: 0mph
Humidity: 81%   Direction: NA
Pressure: 30.27"   Gusts: NA
Location:  41.89°N, 88.47°W
Report Text: KARR 200552Z AUTO 00000KT 5SM HZ CLR M04/M07 A3027 RMK AO2 SLP258 I1000 I6000 T10391067 11006 21044 400111044 55002
Loading
Personal Weather Stations






























Interactive Weather Map New forecast layout! Learn more

10-Day Weather Forecast

Advertisements
Track Severe Weather on mobile